createdAt,value
2023-04-23T00:00:06.576Z,115.06
2023-04-23T00:01:06.605Z,115.00
2023-04-23T00:02:06.671Z,115.38
2023-04-23T00:03:06.745Z,117.41
2023-04-23T00:04:06.773Z,116.47
2023-04-23T00:05:06.643Z,116.80
2023-04-23T00:06:06.610Z,118.71
2023-04-23T00:07:06.713Z,118.16
2023-04-23T00:08:08.150Z,115.53
2023-04-23T00:09:06.584Z,114.63
2023-04-23T00:10:06.567Z,114.26
2023-04-23T00:11:06.598Z,114.80
2023-04-23T00:12:06.586Z,114.75
2023-04-23T00:13:06.557Z,113.76
2023-04-23T00:14:06.673Z,110.19
2023-04-23T00:15:06.574Z,114.50
2023-04-23T00:16:06.600Z,120.38
2023-04-23T00:17:06.578Z,113.81
2023-04-23T00:18:06.581Z,113.26
2023-04-23T00:19:06.565Z,115.42
2023-04-23T00:20:06.579Z,120.03
2023-04-23T00:21:06.549Z,115.74
2023-04-23T00:22:06.575Z,118.69
2023-04-23T00:23:06.536Z,119.66
2023-04-23T00:24:06.548Z,116.93
2023-04-23T00:25:06.557Z,118.07
2023-04-23T00:26:06.564Z,118.95
2023-04-23T00:27:06.563Z,117.34
2023-04-23T00:28:06.552Z,120.26
2023-04-23T00:29:06.575Z,118.40
2023-04-23T00:30:06.588Z,118.27
2023-04-23T00:31:06.550Z,119.11
2023-04-23T00:32:06.645Z,114.75
2023-04-23T00:33:06.552Z,114.38
2023-04-23T00:34:06.533Z,118.99
2023-04-23T00:35:06.551Z,118.87
2023-04-23T00:36:06.537Z,118.71
2023-04-23T00:37:06.540Z,117.84
2023-04-23T00:38:06.519Z,118.15
2023-04-23T00:39:06.538Z,116.85
2023-04-23T00:40:06.530Z,121.07
2023-04-23T00:41:06.512Z,123.79
2023-04-23T00:42:06.530Z,123.01
2023-04-23T00:43:06.545Z,120.03
2023-04-23T00:44:06.535Z,125.32
2023-04-23T00:45:06.495Z,122.33
2023-04-23T00:46:06.558Z,122.97
2023-04-23T00:47:06.512Z,124.57
2023-04-23T00:48:06.529Z,122.91
2023-04-23T00:49:06.531Z,123.12
2023-04-23T00:50:06.536Z,123.26
2023-04-23T00:51:06.503Z,121.19
2023-04-23T00:52:06.507Z,122.13
2023-04-23T00:53:06.499Z,123.10
2023-04-23T00:54:06.539Z,122.80
2023-04-23T00:55:06.538Z,123.81
2023-04-23T00:56:06.498Z,123.87
2023-04-23T00:57:06.520Z,118.33
2023-04-23T00:58:06.546Z,115.90
2023-04-23T00:59:06.511Z,120.37
2023-04-23T01:00:06.495Z,126.19
2023-04-23T01:01:06.527Z,125.38
2023-04-23T01:02:06.592Z,123.51
2023-04-23T01:03:06.666Z,123.99
2023-04-23T01:04:06.795Z,130.25
2023-04-23T01:05:06.498Z,123.47
2023-04-23T01:06:06.513Z,125.14
2023-04-23T01:07:06.471Z,121.48
2023-04-23T01:08:06.478Z,122.93
2023-04-23T01:09:09.200Z,123.48
2023-04-23T01:10:06.460Z,120.70
2023-04-23T01:11:06.443Z,125.57
2023-04-23T01:12:06.438Z,127.40
2023-04-23T01:13:06.437Z,130.00
2023-04-23T01:14:06.462Z,129.82
2023-04-23T01:15:06.445Z,130.09
2023-04-23T01:16:06.433Z,129.86
2023-04-23T01:17:06.439Z,130.49
2023-04-23T01:18:06.407Z,128.87
2023-04-23T01:19:06.422Z,132.33
2023-04-23T01:20:06.393Z,132.01
2023-04-23T01:21:06.375Z,128.50
2023-04-23T01:22:06.378Z,130.46
2023-04-23T01:23:06.356Z,131.87
2023-04-23T01:24:06.387Z,133.81
2023-04-23T01:25:06.353Z,133.89
2023-04-23T01:26:06.350Z,131.16
2023-04-23T01:27:06.361Z,129.58
2023-04-23T01:28:06.346Z,134.11
2023-04-23T01:29:06.327Z,130.45
2023-04-23T01:30:06.339Z,130.74
2023-04-23T01:31:06.325Z,126.11
2023-04-23T01:32:06.314Z,128.37
2023-04-23T01:33:06.348Z,128.14
2023-04-23T01:34:06.301Z,130.86
2023-04-23T01:35:06.309Z,126.69
2023-04-23T01:36:06.306Z,127.25
2023-04-23T01:37:06.312Z,128.16
2023-04-23T01:38:06.257Z,127.42
2023-04-23T01:39:06.260Z,126.75
2023-04-23T01:40:06.266Z,125.53
2023-04-23T01:41:06.246Z,127.36
2023-04-23T01:42:06.230Z,128.04
2023-04-23T01:43:06.251Z,128.57
2023-04-23T01:44:06.225Z,124.26
2023-04-23T01:45:06.237Z,123.19
2023-04-23T01:46:06.234Z,127.88
2023-04-23T01:47:07.239Z,124.99
2023-04-23T01:48:06.235Z,130.62
2023-04-23T01:49:06.191Z,127.52
2023-04-23T01:50:06.203Z,130.02
2023-04-23T01:51:06.175Z,129.85
2023-04-23T01:52:06.178Z,125.60
2023-04-23T01:53:06.199Z,130.31
2023-04-23T01:54:06.147Z,128.98
2023-04-23T01:55:06.166Z,131.09
2023-04-23T01:56:06.176Z,126.54
2023-04-23T01:57:06.160Z,129.69
2023-04-23T01:58:06.120Z,130.58
2023-04-23T01:59:06.117Z,127.88
2023-04-23T02:00:06.105Z,130.35
2023-04-23T02:01:06.101Z,126.97
2023-04-23T02:02:06.232Z,125.40
2023-04-23T02:03:06.353Z,125.14
2023-04-23T02:04:06.124Z,127.93
2023-04-23T02:05:06.079Z,129.75
2023-04-23T02:06:06.106Z,128.90
2023-04-23T02:07:06.054Z,130.46
2023-04-23T02:08:06.080Z,127.82
2023-04-23T02:09:06.058Z,129.42
2023-04-23T02:10:06.063Z,125.90
2023-04-23T02:11:06.065Z,128.07
2023-04-23T02:12:06.024Z,131.71
2023-04-23T02:13:06.052Z,130.30
2023-04-23T02:14:06.016Z,128.42
2023-04-23T02:15:06.015Z,123.48
2023-04-23T02:16:06.057Z,129.13
2023-04-23T02:17:06.028Z,127.10
2023-04-23T02:18:06.009Z,126.05
2023-04-23T02:19:05.999Z,127.83
2023-04-23T02:20:05.970Z,130.04
2023-04-23T02:21:06.000Z,127.26
2023-04-23T02:22:05.986Z,124.74
2023-04-23T02:23:05.979Z,124.34
2023-04-23T02:24:05.964Z,126.41
2023-04-23T02:25:05.982Z,126.26
2023-04-23T02:26:05.965Z,124.03
2023-04-23T02:27:05.976Z,129.59
2023-04-23T02:28:05.947Z,128.62
2023-04-23T02:29:05.926Z,127.53
2023-04-23T02:30:05.922Z,126.41
2023-04-23T02:31:05.970Z,123.00
2023-04-23T02:32:05.892Z,124.40
2023-04-23T02:33:05.918Z,122.50
2023-04-23T02:34:05.918Z,122.10
2023-04-23T02:35:05.881Z,123.67
2023-04-23T02:36:05.897Z,121.23
2023-04-23T02:37:05.904Z,121.58
2023-04-23T02:38:05.865Z,121.90
2023-04-23T02:39:05.888Z,120.64
2023-04-23T02:40:05.867Z,124.18
2023-04-23T02:41:05.902Z,123.87
2023-04-23T02:42:05.863Z,123.16
2023-04-23T02:43:05.863Z,121.70
2023-04-23T02:44:05.871Z,123.14
2023-04-23T02:45:05.854Z,123.02
2023-04-23T02:46:05.829Z,123.34
2023-04-23T02:47:05.841Z,122.50
2023-04-23T02:48:05.823Z,124.04
2023-04-23T02:49:05.817Z,126.58
2023-04-23T02:50:05.834Z,127.58
2023-04-23T02:51:05.809Z,124.55
2023-04-23T02:52:05.791Z,122.71
2023-04-23T02:53:05.807Z,124.87
2023-04-23T02:54:05.801Z,118.19
2023-04-23T02:55:05.792Z,123.38
2023-04-23T02:56:05.790Z,125.56
2023-04-23T02:57:05.761Z,124.10
2023-04-23T02:58:05.758Z,125.46
2023-04-23T02:59:05.741Z,126.18
2023-04-23T03:00:05.717Z,124.53
2023-04-23T03:01:05.782Z,124.40
2023-04-23T03:02:05.772Z,130.60
2023-04-23T03:03:05.856Z,125.06
2023-04-23T03:04:05.880Z,125.20
2023-04-23T03:05:05.719Z,124.43
2023-04-23T03:06:05.735Z,127.21
2023-04-23T03:07:05.722Z,126.59
2023-04-23T03:08:05.689Z,125.95
2023-04-23T03:09:05.684Z,123.35
2023-04-23T03:10:05.738Z,129.37
2023-04-23T03:11:05.728Z,126.48
2023-04-23T03:12:05.739Z,126.96
2023-04-23T03:13:05.760Z,123.57
2023-04-23T03:14:05.797Z,125.06
2023-04-23T03:15:05.780Z,126.38
2023-04-23T03:16:05.819Z,127.96
2023-04-23T03:17:05.962Z,130.70
2023-04-23T03:18:05.876Z,127.20
2023-04-23T03:19:05.876Z,127.27
2023-04-23T03:20:05.925Z,124.93
2023-04-23T03:21:05.914Z,126.97
2023-04-23T03:22:05.963Z,126.29
2023-04-23T03:23:05.984Z,127.32
2023-04-23T03:24:05.991Z,126.43
2023-04-23T03:25:06.017Z,126.15
2023-04-23T03:26:06.034Z,127.55
2023-04-23T03:27:06.023Z,122.39
2023-04-23T03:28:06.040Z,126.84
2023-04-23T03:29:06.056Z,124.53
2023-04-23T03:30:06.075Z,122.54
2023-04-23T03:31:06.140Z,127.36
2023-04-23T03:32:06.132Z,122.73
2023-04-23T03:33:06.146Z,124.62
2023-04-23T03:34:06.154Z,123.86
2023-04-23T03:35:06.195Z,124.90
2023-04-23T03:36:06.215Z,128.37
2023-04-23T03:37:06.239Z,124.25
2023-04-23T03:38:06.282Z,127.83
2023-04-23T03:39:06.271Z,125.88
2023-04-23T03:40:06.289Z,124.94
2023-04-23T03:41:06.307Z,126.49
2023-04-23T03:42:06.327Z,124.72
2023-04-23T03:43:06.352Z,123.84
2023-04-23T03:44:06.366Z,122.50
2023-04-23T03:45:06.378Z,122.93
2023-04-23T03:46:06.461Z,125.24
2023-04-23T03:47:06.417Z,127.41
2023-04-23T03:48:06.465Z,124.71
2023-04-23T03:49:06.486Z,125.00
2023-04-23T03:50:06.509Z,123.21
2023-04-23T03:51:06.574Z,123.40
2023-04-23T03:52:06.558Z,125.79
2023-04-23T03:53:06.598Z,125.11
2023-04-23T03:54:06.631Z,124.88
2023-04-23T03:55:06.616Z,125.35
2023-04-23T03:56:06.668Z,124.66
2023-04-23T03:57:06.672Z,126.91
2023-04-23T03:58:06.722Z,123.75
2023-04-23T03:59:06.727Z,128.05
2023-04-23T04:00:06.769Z,124.06
2023-04-23T04:01:06.782Z,127.13
2023-04-23T04:02:06.913Z,123.40
2023-04-23T04:03:07.011Z,122.00
2023-04-23T04:04:07.024Z,120.24
2023-04-23T04:05:07.193Z,127.13
2023-04-23T04:06:06.923Z,126.72
2023-04-23T04:07:06.918Z,128.10
2023-04-23T04:08:06.959Z,122.25
2023-04-23T04:09:06.997Z,124.04
2023-04-23T04:10:06.986Z,122.30
2023-04-23T04:11:07.023Z,124.83
2023-04-23T04:12:07.041Z,123.25
2023-04-23T04:13:07.074Z,127.15
2023-04-23T04:14:07.079Z,125.85
2023-04-23T04:15:07.084Z,125.03
2023-04-23T04:16:07.160Z,122.94
2023-04-23T04:17:07.134Z,126.13
2023-04-23T04:18:07.139Z,123.90
2023-04-23T04:19:07.193Z,121.82
2023-04-23T04:20:07.212Z,124.56
2023-04-23T04:21:07.260Z,123.61
2023-04-23T04:22:07.296Z,121.75
2023-04-23T04:23:07.297Z,124.68
2023-04-23T04:24:07.313Z,121.66
2023-04-23T04:25:07.360Z,120.47
2023-04-23T04:26:07.374Z,123.70
2023-04-23T04:27:07.397Z,123.42
2023-04-23T04:28:07.438Z,127.79
2023-04-23T04:29:07.437Z,122.29
2023-04-23T04:30:07.476Z,122.59
2023-04-23T04:31:07.509Z,125.99
2023-04-23T04:32:07.530Z,121.40
2023-04-23T04:33:07.524Z,124.39
2023-04-23T04:34:07.575Z,122.72
2023-04-23T04:35:07.681Z,122.41
2023-04-23T04:36:07.637Z,122.95
2023-04-23T04:37:07.671Z,122.38
2023-04-23T04:38:07.666Z,127.52
2023-04-23T04:39:07.680Z,124.08
2023-04-23T04:40:07.732Z,126.02
2023-04-23T04:41:07.812Z,126.80
2023-04-23T04:42:07.802Z,124.23
2023-04-23T04:43:07.789Z,123.30
2023-04-23T04:44:07.813Z,121.53
2023-04-23T04:45:07.821Z,123.69
2023-04-23T04:46:07.877Z,125.14
2023-04-23T04:47:07.931Z,121.20
2023-04-23T04:48:07.922Z,121.44
2023-04-23T04:49:07.952Z,122.20
2023-04-23T04:50:07.958Z,125.85
2023-04-23T04:51:07.946Z,123.45
2023-04-23T04:52:07.967Z,126.17
2023-04-23T04:53:07.997Z,122.31
2023-04-23T04:54:08.030Z,126.24
2023-04-23T04:55:08.038Z,125.07
2023-04-23T04:56:08.049Z,124.74
2023-04-23T04:57:08.049Z,124.87
2023-04-23T04:58:08.101Z,123.93
2023-04-23T04:59:08.115Z,124.76
2023-04-23T05:00:08.119Z,124.11
2023-04-23T05:01:08.182Z,124.93
2023-04-23T05:02:08.267Z,125.22
2023-04-23T05:03:08.985Z,124.09
2023-04-23T05:04:08.472Z,125.26
2023-04-23T05:05:08.256Z,122.42
2023-04-23T05:06:08.239Z,124.62
2023-04-23T05:07:08.275Z,123.84
2023-04-23T05:08:08.285Z,124.52
2023-04-23T05:09:08.356Z,129.77
2023-04-23T05:10:08.338Z,126.65
2023-04-23T05:11:08.383Z,126.43
2023-04-23T05:12:08.370Z,123.11
2023-04-23T05:13:08.794Z,124.44
2023-04-23T05:14:08.427Z,124.15
2023-04-23T05:15:08.458Z,123.43
2023-04-23T05:16:08.501Z,127.45
2023-04-23T05:17:08.495Z,122.70
2023-04-23T05:18:08.550Z,124.89
2023-04-23T05:19:08.547Z,124.09
2023-04-23T05:20:08.613Z,120.69
2023-04-23T05:21:08.649Z,127.44
2023-04-23T05:22:08.670Z,125.99
2023-04-23T05:23:08.676Z,125.19
2023-04-23T05:24:08.708Z,126.41
2023-04-23T05:25:08.724Z,127.32
2023-04-23T05:26:08.737Z,128.81
2023-04-23T05:27:08.756Z,124.66
2023-04-23T05:28:08.826Z,124.32
2023-04-23T05:29:08.837Z,125.62
2023-04-23T05:30:08.836Z,125.32
2023-04-23T05:31:09.009Z,124.70
2023-04-23T05:32:08.954Z,123.83
2023-04-23T05:33:08.889Z,126.41
2023-04-23T05:34:08.916Z,126.61
2023-04-23T05:35:08.917Z,129.29
2023-04-23T05:36:08.978Z,128.54
2023-04-23T05:37:09.021Z,126.10
2023-04-23T05:38:09.031Z,126.23
2023-04-23T05:39:08.989Z,129.42
2023-04-23T05:40:09.025Z,129.14
2023-04-23T05:41:09.063Z,127.08
2023-04-23T05:42:09.060Z,126.44
2023-04-23T05:43:09.107Z,131.69
2023-04-23T05:44:09.099Z,126.40
2023-04-23T05:45:09.375Z,127.31
2023-04-23T05:46:09.166Z,125.63
2023-04-23T05:47:09.123Z,127.83
2023-04-23T05:48:09.202Z,126.49
2023-04-23T05:49:09.178Z,127.87
2023-04-23T05:50:09.194Z,125.97
2023-04-23T05:51:09.217Z,128.37
2023-04-23T05:52:09.204Z,127.10
2023-04-23T05:53:09.251Z,125.43
2023-04-23T05:54:09.242Z,125.39
2023-04-23T05:55:09.247Z,128.02
2023-04-23T05:56:09.264Z,126.21
2023-04-23T05:57:09.258Z,126.65
2023-04-23T05:58:09.303Z,126.72
2023-04-23T05:59:09.298Z,126.02
2023-04-23T06:00:09.312Z,125.47
2023-04-23T06:01:09.337Z,123.54
2023-04-23T06:02:09.464Z,127.46
2023-04-23T06:03:09.494Z,128.53
2023-04-23T06:04:09.482Z,130.54
2023-04-23T06:05:09.632Z,128.96
2023-04-23T06:06:09.407Z,124.22
2023-04-23T06:07:09.393Z,125.72
2023-04-23T06:08:09.441Z,124.14
2023-04-23T06:09:09.452Z,128.41
2023-04-23T06:10:09.453Z,127.40
2023-04-23T06:11:09.458Z,128.41
2023-04-23T06:12:09.484Z,128.47
2023-04-23T06:13:09.500Z,128.29
2023-04-23T06:14:09.480Z,128.95
2023-04-23T06:15:09.544Z,127.25
2023-04-23T06:16:09.566Z,130.40
2023-04-23T06:17:09.533Z,130.97
2023-04-23T06:18:09.592Z,132.04
2023-04-23T06:19:09.594Z,129.31
2023-04-23T06:20:09.566Z,126.66
2023-04-23T06:21:09.608Z,129.44
2023-04-23T06:22:09.641Z,126.89
2023-04-23T06:23:09.635Z,128.64
2023-04-23T06:24:09.645Z,130.10
2023-04-23T06:25:09.656Z,128.73
2023-04-23T06:26:09.675Z,128.30
2023-04-23T06:27:09.709Z,128.19
2023-04-23T06:28:09.699Z,127.40
2023-04-23T06:29:09.743Z,124.57
2023-04-23T06:30:09.720Z,124.10
2023-04-23T06:31:09.780Z,124.29
2023-04-23T06:32:09.749Z,124.58
2023-04-23T06:33:09.756Z,122.59
2023-04-23T06:34:09.772Z,125.78
2023-04-23T06:35:09.784Z,125.53
2023-04-23T06:36:09.769Z,126.94
2023-04-23T06:37:09.766Z,126.30
2023-04-23T06:38:09.813Z,124.94
2023-04-23T06:39:09.849Z,125.67
2023-04-23T06:40:09.849Z,126.16
2023-04-23T06:41:09.860Z,127.04
2023-04-23T06:42:09.859Z,123.33
2023-04-23T06:43:09.898Z,123.87
2023-04-23T06:44:09.912Z,124.36
2023-04-23T06:45:09.918Z,126.42
2023-04-23T06:46:09.971Z,126.53
2023-04-23T06:47:10.140Z,127.59
2023-04-23T06:48:10.043Z,123.49
2023-04-23T06:49:09.981Z,125.98
2023-04-23T06:50:10.092Z,125.84
2023-04-23T06:51:10.050Z,123.84
2023-04-23T06:52:10.054Z,125.45
2023-04-23T06:53:10.090Z,124.96
2023-04-23T06:54:10.060Z,121.45
2023-04-23T06:55:10.089Z,122.28
2023-04-23T06:56:10.114Z,122.80
2023-04-23T06:57:10.152Z,126.25
2023-04-23T06:58:10.161Z,120.66
2023-04-23T06:59:10.182Z,127.42
2023-04-23T07:00:10.180Z,126.53
2023-04-23T07:01:10.263Z,122.56
2023-04-23T07:02:10.268Z,123.04
2023-04-23T07:03:10.425Z,125.14
2023-04-23T07:04:10.301Z,124.66
2023-04-23T07:05:10.312Z,124.11
2023-04-23T07:06:10.329Z,122.37
2023-04-23T07:07:10.289Z,126.40
2023-04-23T07:08:10.314Z,128.27
2023-04-23T07:09:10.303Z,125.17
2023-04-23T07:10:10.328Z,126.91
2023-04-23T07:11:10.344Z,127.86
2023-04-23T07:12:10.382Z,126.93
2023-04-23T07:13:10.365Z,124.53
2023-04-23T07:14:10.401Z,123.95
2023-04-23T07:15:10.389Z,124.37
2023-04-23T07:16:10.421Z,126.32
2023-04-23T07:17:10.406Z,125.92
2023-04-23T07:18:10.426Z,122.66
2023-04-23T07:19:10.407Z,122.09
2023-04-23T07:20:10.460Z,121.03
2023-04-23T07:21:10.436Z,123.19
2023-04-23T07:22:10.438Z,125.67
2023-04-23T07:23:10.482Z,119.78
2023-04-23T07:24:10.461Z,125.48
2023-04-23T07:25:10.514Z,121.57
2023-04-23T07:26:10.581Z,121.76
2023-04-23T07:27:10.535Z,124.72
2023-04-23T07:28:10.549Z,125.16
2023-04-23T07:29:10.551Z,119.56
2023-04-23T07:30:10.529Z,122.05
2023-04-23T07:31:10.616Z,124.16
2023-04-23T07:32:10.589Z,123.84
2023-04-23T07:33:10.560Z,125.26
2023-04-23T07:34:10.583Z,127.83
2023-04-23T07:35:10.534Z,127.76
2023-04-23T07:36:10.557Z,126.18
2023-04-23T07:37:10.549Z,126.94
2023-04-23T07:38:10.535Z,128.50
2023-04-23T07:39:10.537Z,128.61
2023-04-23T07:40:10.536Z,126.57
2023-04-23T07:41:10.539Z,128.61
2023-04-23T07:42:10.542Z,124.85
2023-04-23T07:43:10.548Z,122.95
2023-04-23T07:44:10.558Z,123.33
2023-04-23T07:45:10.550Z,119.34
2023-04-23T07:46:10.601Z,127.40
2023-04-23T07:47:10.540Z,127.04
2023-04-23T07:48:10.572Z,123.08
2023-04-23T07:49:10.557Z,119.47
2023-04-23T07:50:10.568Z,125.55
2023-04-23T07:51:10.542Z,126.01
2023-04-23T07:52:10.588Z,126.00
2023-04-23T07:53:10.557Z,129.68
2023-04-23T07:54:10.592Z,125.48
2023-04-23T07:55:10.545Z,126.20
2023-04-23T07:56:10.562Z,126.50
2023-04-23T07:57:10.569Z,130.13
2023-04-23T07:58:10.577Z,128.79
2023-04-23T07:59:10.566Z,127.47
2023-04-23T08:00:10.577Z,128.49
2023-04-23T08:01:10.576Z,128.81
2023-04-23T08:02:10.721Z,127.64
2023-04-23T08:03:10.639Z,125.53
2023-04-23T08:04:10.874Z,125.72
2023-04-23T08:05:10.820Z,127.86
2023-04-23T08:06:10.561Z,127.68
2023-04-23T08:07:10.583Z,124.97
2023-04-23T08:08:10.582Z,131.51
2023-04-23T08:09:10.566Z,128.62
2023-04-23T08:10:10.557Z,131.70
2023-04-23T08:11:10.571Z,125.37
2023-04-23T08:12:10.553Z,130.52
2023-04-23T08:13:10.575Z,131.15
2023-04-23T08:14:10.561Z,131.45
2023-04-23T08:15:10.568Z,135.06
2023-04-23T08:16:10.647Z,134.60
2023-04-23T08:17:10.557Z,130.99
2023-04-23T08:18:10.552Z,133.47
2023-04-23T08:19:10.571Z,130.38
2023-04-23T08:20:10.613Z,134.16
2023-04-23T08:21:10.549Z,133.03
2023-04-23T08:22:10.529Z,132.92
2023-04-23T08:23:10.538Z,129.74
2023-04-23T08:24:10.552Z,136.02
2023-04-23T08:25:10.552Z,131.18
2023-04-23T08:26:10.509Z,127.18
2023-04-23T08:27:10.522Z,131.22
2023-04-23T08:28:10.531Z,127.57
2023-04-23T08:29:11.618Z,132.56
2023-04-23T08:30:10.504Z,133.20
2023-04-23T08:31:22.870Z,133.93
2023-04-23T08:32:11.538Z,134.18
2023-04-23T08:33:10.538Z,134.73
2023-04-23T08:34:10.471Z,135.62
2023-04-23T08:35:10.494Z,135.23
2023-04-23T08:36:10.592Z,132.91
2023-04-23T08:37:19.622Z,132.70
2023-04-23T08:38:11.460Z,133.11
2023-04-23T08:39:10.464Z,133.72
2023-04-23T08:40:10.448Z,134.91
2023-04-23T08:41:10.452Z,136.50
2023-04-23T08:42:10.430Z,139.35
2023-04-23T08:43:10.446Z,136.37
2023-04-23T08:44:10.441Z,135.29
2023-04-23T08:45:10.438Z,135.41
2023-04-23T08:46:10.433Z,139.26
2023-04-23T08:47:10.440Z,141.45
2023-04-23T08:48:10.453Z,142.05
2023-04-23T08:49:10.392Z,142.00
2023-04-23T08:50:10.384Z,136.07
2023-04-23T08:51:10.409Z,140.93
2023-04-23T08:52:10.394Z,136.59
2023-04-23T08:53:10.464Z,136.69
2023-04-23T08:54:10.477Z,139.97
2023-04-23T08:55:10.540Z,138.72
2023-04-23T08:56:10.564Z,138.88
2023-04-23T08:57:10.566Z,140.75
2023-04-23T08:58:10.578Z,140.61
2023-04-23T08:59:10.628Z,137.79
2023-04-23T09:00:10.667Z,136.79
2023-04-23T09:01:10.735Z,139.68
2023-04-23T09:02:10.986Z,138.94
2023-04-23T09:03:11.041Z,142.61
2023-04-23T09:04:10.821Z,139.91
2023-04-23T09:05:10.830Z,143.74
2023-04-23T09:06:10.883Z,144.86
2023-04-23T09:07:10.897Z,143.10
2023-04-23T09:08:10.939Z,144.24
2023-04-23T09:09:10.972Z,140.27
2023-04-23T09:10:11.005Z,141.52
2023-04-23T09:11:11.051Z,146.55
2023-04-23T09:12:11.107Z,143.84
2023-04-23T09:13:11.093Z,139.76
2023-04-23T09:14:11.153Z,140.24
2023-04-23T09:15:11.193Z,143.17
2023-04-23T09:16:11.267Z,138.46
2023-04-23T09:17:11.286Z,144.14
2023-04-23T09:18:11.367Z,142.08
2023-04-23T09:19:11.420Z,143.35
2023-04-23T09:20:11.557Z,143.47
2023-04-23T09:21:11.501Z,142.77
2023-04-23T09:22:11.569Z,141.49
2023-04-23T09:23:11.629Z,142.75
2023-04-23T09:24:11.699Z,148.88
2023-04-23T09:25:11.728Z,146.91
2023-04-23T09:26:11.789Z,146.40
2023-04-23T09:27:11.836Z,144.76
2023-04-23T09:28:11.997Z,141.97
2023-04-23T09:29:11.912Z,146.41
2023-04-23T09:30:11.962Z,148.62
2023-04-23T09:31:12.024Z,145.06
2023-04-23T09:32:12.093Z,144.08
2023-04-23T09:33:12.118Z,143.30
2023-04-23T09:34:12.268Z,143.18
2023-04-23T09:35:12.218Z,142.54
2023-04-23T09:36:12.274Z,143.88
2023-04-23T09:37:12.313Z,142.89
2023-04-23T09:38:12.367Z,144.37
2023-04-23T09:39:12.438Z,143.12
2023-04-23T09:40:12.503Z,146.36
2023-04-23T09:41:12.572Z,143.78
2023-04-23T09:42:12.642Z,143.89
2023-04-23T09:43:12.662Z,144.84
2023-04-23T09:44:12.730Z,145.19
2023-04-23T09:45:12.796Z,143.23
2023-04-23T09:46:12.940Z,147.62
2023-04-23T09:47:12.948Z,146.35
2023-04-23T09:48:12.982Z,145.52
2023-04-23T09:49:13.070Z,149.40
2023-04-23T09:50:13.128Z,143.84
2023-04-23T09:51:13.178Z,145.08
2023-04-23T09:52:13.228Z,144.68
2023-04-23T09:53:13.276Z,141.91
2023-04-23T09:54:13.357Z,142.22
2023-04-23T09:55:13.408Z,144.44
2023-04-23T09:56:13.459Z,142.55
2023-04-23T09:57:13.542Z,143.97
2023-04-23T09:58:13.611Z,142.98
2023-04-23T09:59:13.697Z,144.56
2023-04-23T10:00:15.034Z,141.62
2023-04-23T10:01:13.810Z,144.62
2023-04-23T10:02:14.128Z,142.15
2023-04-23T10:03:14.046Z,145.82
2023-04-23T10:04:14.228Z,141.11
2023-04-23T10:05:23.618Z,141.72
2023-04-23T10:06:25.939Z,141.97
2023-04-23T10:07:18.967Z,142.26
2023-04-23T10:08:14.225Z,142.53
2023-04-23T10:09:14.013Z,144.02
2023-04-23T10:10:14.009Z,146.08
2023-04-23T10:11:20.789Z,145.28
2023-04-23T10:13:13.964Z,142.31
2023-04-23T10:14:13.966Z,143.91
2023-04-23T10:15:13.965Z,145.03
2023-04-23T10:16:22.480Z,147.21
2023-04-23T10:17:14.953Z,142.29
2023-04-23T10:18:13.965Z,143.20
2023-04-23T10:19:13.923Z,144.72
2023-04-23T10:20:13.912Z,144.02
2023-04-23T10:21:13.910Z,146.86
2023-04-23T10:23:13.875Z,147.76
2023-04-23T10:24:13.904Z,144.17
2023-04-23T10:25:13.870Z,149.58
2023-04-23T10:26:13.874Z,143.37
2023-04-23T10:27:21.930Z,144.40
2023-04-23T10:28:14.855Z,144.86
2023-04-23T10:29:13.859Z,145.43
2023-04-23T10:30:13.847Z,146.29
2023-04-23T10:31:13.874Z,146.12
2023-04-23T10:32:13.810Z,148.11
2023-04-23T10:33:28.570Z,147.18
2023-04-23T10:34:14.824Z,147.57
2023-04-23T10:35:13.813Z,147.80
2023-04-23T10:36:13.844Z,147.85
2023-04-23T10:37:13.821Z,148.19
2023-04-23T10:38:13.834Z,148.16
2023-04-23T10:39:15.887Z,149.58
2023-04-23T10:40:15.029Z,149.83
2023-04-23T10:41:13.776Z,149.50
2023-04-23T10:42:13.770Z,150.12
2023-04-23T10:43:13.761Z,147.69
2023-04-23T10:44:15.761Z,147.94
2023-04-23T10:45:23.227Z,148.26
2023-04-23T10:46:14.787Z,148.43
2023-04-23T10:47:13.757Z,148.83
2023-04-23T10:48:13.739Z,149.46
2023-04-23T10:49:13.741Z,149.35
2023-04-23T10:50:13.737Z,150.93
2023-04-23T10:52:20.344Z,149.38
2023-04-23T10:53:14.705Z,149.64
2023-04-23T10:54:13.693Z,150.86
2023-04-23T10:55:13.707Z,151.86
2023-04-23T10:56:13.688Z,151.75
2023-04-23T10:57:13.676Z,153.95
2023-04-23T10:58:13.682Z,150.29
2023-04-23T10:59:13.701Z,146.23
2023-04-23T11:00:13.653Z,152.22
2023-04-23T11:01:13.660Z,147.64
2023-04-23T11:02:13.884Z,147.78
2023-04-23T11:03:13.714Z,148.53
2023-04-23T11:04:13.773Z,148.74
2023-04-23T11:05:13.606Z,149.55
2023-04-23T11:06:13.603Z,149.84
2023-04-23T11:07:13.585Z,148.75
2023-04-23T11:08:19.197Z,152.34
2023-04-23T11:09:14.598Z,152.58
2023-04-23T11:10:13.681Z,152.87
2023-04-23T11:11:13.599Z,152.45
2023-04-23T11:12:13.597Z,153.67
2023-04-23T11:13:13.549Z,152.59
2023-04-23T11:14:13.591Z,156.57
2023-04-23T11:15:13.562Z,153.60
2023-04-23T11:16:13.572Z,151.20
2023-04-23T11:17:13.559Z,150.15
2023-04-23T11:18:13.567Z,151.43
2023-04-23T11:19:13.630Z,151.56
2023-04-23T11:20:13.938Z,153.77
2023-04-23T11:21:13.740Z,150.91
2023-04-23T11:22:13.808Z,152.15
2023-04-23T11:23:13.836Z,150.17
2023-04-23T11:24:15.417Z,151.06
2023-04-23T11:25:13.977Z,152.71
2023-04-23T11:26:13.980Z,152.84
2023-04-23T11:27:14.048Z,151.68
2023-04-23T11:28:14.124Z,151.98
2023-04-23T11:29:14.142Z,149.75
2023-04-23T11:30:14.256Z,154.80
2023-04-23T11:31:14.227Z,150.90
2023-04-23T11:32:14.363Z,153.97
2023-04-23T11:33:14.394Z,151.34
2023-04-23T11:34:14.390Z,155.11
2023-04-23T11:35:14.418Z,156.38
2023-04-23T11:36:14.517Z,152.77
2023-04-23T11:37:14.541Z,154.47
2023-04-23T11:38:14.583Z,150.79
2023-04-23T11:39:14.642Z,153.81
2023-04-23T11:40:14.686Z,153.02
2023-04-23T11:41:14.762Z,151.66
2023-04-23T11:42:14.781Z,154.43
2023-04-23T11:43:14.832Z,153.57
2023-04-23T11:44:14.900Z,153.30
2023-04-23T11:45:14.932Z,154.53
2023-04-23T11:46:15.066Z,152.54
2023-04-23T11:47:15.049Z,151.34
2023-04-23T11:48:15.087Z,153.36
2023-04-23T11:49:15.155Z,154.30
2023-04-23T11:50:15.257Z,153.40
2023-04-23T11:51:15.239Z,151.02
2023-04-23T11:52:15.309Z,153.72
2023-04-23T11:53:15.342Z,155.16
2023-04-23T11:54:15.418Z,153.28
2023-04-23T11:55:15.414Z,154.44
2023-04-23T11:56:15.488Z,154.69
2023-04-23T11:57:15.524Z,156.34
2023-04-23T11:58:15.739Z,152.35
2023-04-23T11:59:15.639Z,154.79
2023-04-23T12:00:15.680Z,155.18
2023-04-23T12:01:15.709Z,154.07
2023-04-23T12:02:15.842Z,155.74
2023-04-23T12:03:15.885Z,155.64
2023-04-23T12:04:16.130Z,154.50
2023-04-23T12:05:15.953Z,153.74
2023-04-23T12:06:15.926Z,157.04
2023-04-23T12:07:25.968Z,155.57
2023-04-23T12:08:16.958Z,155.69
2023-04-23T12:09:15.958Z,156.22
2023-04-23T12:10:16.671Z,156.21
2023-04-23T12:11:15.936Z,156.55
2023-04-23T12:12:15.940Z,155.83
2023-04-23T12:13:15.930Z,153.45
2023-04-23T12:14:16.017Z,155.97
2023-04-23T12:15:15.930Z,155.16
2023-04-23T12:16:15.947Z,155.05
2023-04-23T12:17:15.902Z,157.06
2023-04-23T12:18:15.875Z,156.80
2023-04-23T12:19:15.897Z,151.78
2023-04-23T12:20:15.893Z,157.58
2023-04-23T12:21:15.949Z,154.37
2023-04-23T12:22:16.016Z,155.35
2023-04-23T12:23:16.035Z,155.98
2023-04-23T12:24:16.046Z,157.18
2023-04-23T12:25:16.152Z,155.58
2023-04-23T12:26:16.194Z,155.96
2023-04-23T12:27:16.209Z,157.88
2023-04-23T12:28:16.207Z,157.62
2023-04-23T12:29:16.246Z,153.48
2023-04-23T12:30:16.259Z,156.37
2023-04-23T12:31:16.307Z,155.42